Time,TemperatureF,DewpointF,PressureIn,WindDirection,WindDirectionDegrees,WindSpeedMPH,WindSpeedGustMPH,Humidity,HourlyPrecipIn,Conditions,Clouds,dailyrainin,SoftwareType,DateUTC
2013-03-28 00:01:00,34.5,26.7,30.13,WNW,286,0.0,0.0,73,0.00,,,0.00,Wunderground v.1.15,2013-03-28 04:01:00,
2013-03-28 00:02:00,34.5,26.7,30.12,WNW,286,0.0,0.0,73,0.00,,,0.00,Wunderground v.1.15,2013-03-28 04:02:00,
2013-03-28 00:07:00,34.5,27.1,30.12,WNW,286,0.0,0.0,74,0.00,,,0.00,Wunderground v.1.15,2013-03-28 04:07:00,
2013-03-28 00:08:00,34.6,27.5,30.12,WNW,286,0.0,1.0,75,0.00,,,0.00,Wunderground v.1.15,2013-03-28 04:08:00,
2013-03-28 00:13:00,34.9,27.5,30.12,WNW,286,1.0,2.0,74,0.00,,,0.00,Wunderground v.1.15,2013-03-28 04:13:00,
2013-03-28 00:19:00,35.5,27.4,30.12,WNW,286,2.0,4.0,72,0.00,,,0.00,Wunderground v.1.15,2013-03-28 04:19:00,
2013-03-28 00:24:00,35.4,27.3,30.12,WNW,286,2.0,3.0,72,0.00,,,0.00,Wunderground v.1.15,2013-03-28 04:24:00,
2013-03-28 00:29:00,35.2,27.1,30.12,WNW,286,2.0,3.0,72,0.00,,,0.00,Wunderground v.1.15,2013-03-28 04:29:00,
2013-03-28 00:34:00,35.3,27.2,30.11,WNW,286,2.0,4.0,72,0.00,,,0.00,Wunderground v.1.15,2013-03-28 04:34:00,
2013-03-28 00:40:00,35.2,27.4,30.12,WNW,286,2.0,2.0,73,0.00,,,0.00,Wunderground v.1.15,2013-03-28 04:40:00,
2013-03-28 00:46:00,35.1,27.3,30.11,WNW,286,1.0,2.0,73,0.00,,,0.00,Wunderground v.1.15,2013-03-28 04:46:00,
2013-03-28 00:51:00,35.1,27.3,30.11,WNW,286,1.0,2.0,73,0.00,,,0.00,Wunderground v.1.15,2013-03-28 04:51:00,
2013-03-28 00:56:00,35.3,27.2,30.11,WNW,286,1.0,2.0,72,0.00,,,0.00,Wunderground v.1.15,2013-03-28 04:56:00,
2013-03-28 01:01:00,35.5,27.4,30.11,WNW,286,2.0,3.0,72,0.00,,,0.00,Wunderground v.1.15,2013-03-28 05:01:00,
2013-03-28 01:06:00,36.5,28.0,30.11,West,280,3.0,4.0,71,0.00,,,0.00,Wunderground v.1.15,2013-03-28 05:06:00,
2013-03-28 01:12:00,37.7,28.1,30.11,West,273,4.0,9.0,68,0.00,,,0.00,Wunderground v.1.15,2013-03-28 05:12:00,
2013-03-28 01:19:00,37.4,27.4,30.11,West,273,5.0,9.0,67,0.00,,,0.00,Wunderground v.1.15,2013-03-28 05:19:00,
2013-03-28 01:25:00,37.1,27.5,30.11,West,273,3.0,4.0,68,0.00,,,0.00,Wunderground v.1.15,2013-03-28 05:25:00,
2013-03-28 01:32:00,36.8,27.2,30.11,West,273,3.0,4.0,68,0.00,,,0.00,Wunderground v.1.15,2013-03-28 05:32:00,
2013-03-28 01:37:00,36.5,26.9,30.11,West,273,2.0,4.0,68,0.00,,,0.00,Wunderground v.1.15,2013-03-28 05:37:00,
2013-03-28 01:42:00,35.9,26.7,30.11,West,273,2.0,2.0,69,0.00,,,0.00,Wunderground v.1.15,2013-03-28 05:42:00,
2013-03-28 01:47:00,35.7,26.9,30.10,West,273,2.0,3.0,70,0.00,,,0.00,Wunderground v.1.15,2013-03-28 05:47:00,
2013-03-28 01:53:00,35.5,26.7,30.10,West,273,2.0,3.0,70,0.00,,,0.00,Wunderground v.1.15,2013-03-28 05:53:00,
2013-03-28 01:59:00,35.5,26.7,30.10,West,273,2.0,3.0,70,0.00,,,0.00,Wunderground v.1.15,2013-03-28 05:59:00,
2013-03-28 02:04:00,35.6,26.8,30.10,West,273,2.0,3.0,70,0.00,,,0.00,Wunderground v.1.15,2013-03-28 06:04:00,
2013-03-28 02:10:00,35.8,26.6,30.10,West,273,2.0,2.0,69,0.00,,,0.00,Wunderground v.1.15,2013-03-28 06:10:00,
2013-03-28 02:16:00,35.5,26.7,30.10,West,273,1.0,2.0,70,0.00,,,0.00,Wunderground v.1.15,2013-03-28 06:16:00,
2013-03-28 02:22:00,35.3,26.5,30.10,West,273,1.0,1.0,70,0.00,,,0.00,Wunderground v.1.15,2013-03-28 06:22:00,
2013-03-28 02:27:00,35.1,26.3,30.10,West,273,0.0,1.0,70,0.00,,,0.00,Wunderground v.1.15,2013-03-28 06:27:00,
2013-03-28 02:34:00,34.7,26.3,30.10,West,273,0.0,0.0,71,0.00,,,0.00,Wunderground v.1.15,2013-03-28 06:34:00,
2013-03-28 02:40:00,34.5,26.4,30.11,West,273,0.0,1.0,72,0.00,,,0.00,Wunderground v.1.15,2013-03-28 06:40:00,
2013-03-28 02:46:00,34.3,26.2,30.10,West,273,0.0,1.0,72,0.00,,,0.00,Wunderground v.1.15,2013-03-28 06:46:00,
2013-03-28 02:51:00,34.9,26.8,30.10,West,273,1.0,4.0,72,0.00,,,0.00,Wunderground v.1.15,2013-03-28 06:51:00,
2013-03-28 02:56:00,35.2,26.7,30.10,West,273,2.0,4.0,71,0.00,,,0.00,Wunderground v.1.15,2013-03-28 06:56:00,
2013-03-28 03:02:00,35.3,27.2,30.10,WNW,288,2.0,5.0,72,0.00,,,0.00,Wunderground v.1.15,2013-03-28 07:02:00,
2013-03-28 03:09:00,36.4,27.5,30.10,West,279,5.0,6.0,70,0.00,,,0.00,Wunderground v.1.15,2013-03-28 07:09:00,
2013-03-28 03:14:00,36.4,27.5,30.09,West,279,5.0,8.0,70,0.00,,,0.00,Wunderground v.1.15,2013-03-28 07:14:00,
2013-03-28 03:19:00,36.5,27.3,30.09,West,276,6.0,8.0,69,0.00,,,0.00,Wunderground v.1.15,2013-03-28 07:19:00,
2013-03-28 03:25:00,36.3,27.4,30.09,West,272,5.0,10.0,70,0.00,,,0.00,Wunderground v.1.15,2013-03-28 07:25:00,
2013-03-28 03:31:00,36.9,27.3,30.10,West,261,6.0,9.0,68,0.00,,,0.00,Wunderground v.1.15,2013-03-28 07:31:00,
2013-03-28 03:36:00,36.7,27.5,30.10,West,265,6.0,9.0,69,0.00,,,0.00,Wunderground v.1.15,2013-03-28 07:36:00,
2013-03-28 03:41:00,36.7,27.5,30.10,West,269,5.0,5.0,69,0.00,,,0.00,Wunderground v.1.15,2013-03-28 07:41:00,
2013-03-28 03:46:00,36.7,27.5,30.10,West,270,4.0,5.0,69,0.00,,,0.00,Wunderground v.1.15,2013-03-28 07:46:00,
2013-03-28 03:52:00,37.0,27.4,30.09,West,270,3.0,4.0,68,0.00,,,0.00,Wunderground v.1.15,2013-03-28 07:52:00,
2013-03-28 03:57:00,37.3,27.0,30.09,West,265,2.0,4.0,66,0.00,,,0.00,Wunderground v.1.15,2013-03-28 07:57:00,
2013-03-28 04:04:00,37.2,26.9,30.09,West,265,1.0,2.0,66,0.00,,,0.00,Wunderground v.1.15,2013-03-28 08:04:00,
2013-03-28 04:10:00,37.3,27.0,30.09,West,265,2.0,2.0,66,0.00,,,0.00,Wunderground v.1.15,2013-03-28 08:10:00,
2013-03-28 04:16:00,36.3,26.7,30.09,West,265,2.0,2.0,68,0.00,,,0.00,Wunderground v.1.15,2013-03-28 08:16:00,
2013-03-28 04:21:00,35.5,26.3,30.09,West,265,3.0,4.0,69,0.00,,,0.00,Wunderground v.1.15,2013-03-28 08:21:00,
2013-03-28 04:26:00,36.4,27.2,30.09,West,277,4.0,9.0,69,0.00,,,0.00,Wunderground v.1.15,2013-03-28 08:26:00,
2013-03-28 04:31:00,37.1,27.5,30.09,WNW,286,6.0,6.0,68,0.00,,,0.00,Wunderground v.1.15,2013-03-28 08:31:00,
2013-03-28 04:37:00,36.9,27.3,30.09,WNW,286,5.0,6.0,68,0.00,,,0.00,Wunderground v.1.15,2013-03-28 08:37:00,
2013-03-28 04:42:00,36.9,27.3,30.09,West,277,4.0,6.0,68,0.00,,,0.00,Wunderground v.1.15,2013-03-28 08:42:00,
2013-03-28 04:47:00,37.2,27.2,30.08,WSW,238,4.0,6.0,67,0.00,,,0.00,Wunderground v.1.15,2013-03-28 08:47:00,
2013-03-28 04:52:00,37.3,27.3,30.09,WSW,249,4.0,4.0,67,0.00,,,0.00,Wunderground v.1.15,2013-03-28 08:52:00,
2013-03-28 04:57:00,37.2,27.2,30.09,WSW,247,4.0,8.0,67,0.00,,,0.00,Wunderground v.1.15,2013-03-28 08:57:00,
2013-03-28 05:02:00,36.9,27.7,30.09,WSW,247,4.0,5.0,69,0.00,,,0.00,Wunderground v.1.15,2013-03-28 09:02:00,
2013-03-28 05:08:00,36.7,27.5,30.09,WNW,297,4.0,5.0,69,0.00,,,0.00,Wunderground v.1.15,2013-03-28 09:08:00,
2013-03-28 05:13:00,37.0,27.8,30.09,West,273,5.0,9.0,69,0.00,,,0.00,Wunderground v.1.15,2013-03-28 09:13:00,
2013-03-28 05:19:00,37.0,27.8,30.09,West,278,7.0,12.0,69,0.00,,,0.00,Wunderground v.1.15,2013-03-28 09:19:00,
2013-03-28 05:25:00,37.1,27.9,30.09,West,280,7.0,7.0,69,0.00,,,0.00,Wunderground v.1.15,2013-03-28 09:25:00,
2013-03-28 05:31:00,37.0,27.8,30.09,West,273,5.0,6.0,69,0.00,,,0.00,Wunderground v.1.15,2013-03-28 09:31:00,
2013-03-28 05:36:00,37.0,27.8,30.09,West,273,5.0,9.0,69,0.00,,,0.00,Wunderground v.1.15,2013-03-28 09:36:00,
2013-03-28 05:41:00,37.2,27.6,30.09,West,264,4.0,4.0,68,0.00,,,0.00,Wunderground v.1.15,2013-03-28 09:41:00,
2013-03-28 05:47:00,37.1,27.9,30.09,West,270,4.0,7.0,69,0.00,,,0.00,Wunderground v.1.15,2013-03-28 09:47:00,
2013-03-28 05:52:00,36.9,27.7,30.10,West,271,4.0,5.0,69,0.00,,,0.00,Wunderground v.1.15,2013-03-28 09:52:00,
2013-03-28 05:57:00,37.0,27.8,30.09,West,273,4.0,5.0,69,0.00,,,0.00,Wunderground v.1.15,2013-03-28 09:57:00,
2013-03-28 06:02:00,37.1,27.9,30.09,West,273,3.0,4.0,69,0.00,,,0.00,Wunderground v.1.15,2013-03-28 10:02:00,
2013-03-28 06:09:00,37.3,27.7,30.09,West,269,4.0,6.0,68,0.00,,,0.00,Wunderground v.1.15,2013-03-28 10:09:00,
2013-03-28 06:14:00,37.3,28.1,30.09,West,274,4.0,6.0,69,0.00,,,0.00,Wunderground v.1.15,2013-03-28 10:14:00,
2013-03-28 06:20:00,37.3,28.1,30.09,West,264,5.0,5.0,69,0.00,,,0.00,Wunderground v.1.15,2013-03-28 10:20:00,
2013-03-28 06:25:00,37.2,28.0,30.09,West,264,4.0,5.0,69,0.00,,,0.00,Wunderground v.1.15,2013-03-28 10:25:00,
2013-03-28 06:32:00,37.2,28.0,30.10,West,279,3.0,3.0,69,0.00,,,0.00,Wunderground v.1.15,2013-03-28 10:32:00,
2013-03-28 06:37:00,37.4,28.2,30.10,West,277,4.0,7.0,69,0.00,,,0.00,Wunderground v.1.15,2013-03-28 10:37:00,
2013-03-28 06:43:00,37.5,28.2,30.10,West,277,3.0,7.0,69,0.00,,,0.00,Wunderground v.1.15,2013-03-28 10:43:00,
2013-03-28 06:49:00,37.6,28.3,30.10,West,263,4.0,7.0,69,0.00,,,0.00,Wunderground v.1.15,2013-03-28 10:49:00,
2013-03-28 06:55:00,37.5,28.2,30.10,WNW,284,4.0,5.0,69,0.00,,,0.00,Wunderground v.1.15,2013-03-28 10:55:00,
2013-03-28 07:01:00,37.6,28.3,30.10,West,275,4.0,4.0,69,0.00,,,0.00,Wunderground v.1.15,2013-03-28 11:01:00,
2013-03-28 07:06:00,37.7,28.8,30.10,West,279,5.0,8.0,70,0.00,,,0.00,Wunderground v.1.15,2013-03-28 11:06:00,
2013-03-28 07:11:00,37.7,28.4,30.11,West,269,6.0,6.0,69,0.00,,,0.00,Wunderground v.1.15,2013-03-28 11:11:00,
2013-03-28 07:16:00,37.7,28.8,30.11,West,276,6.0,6.0,70,0.00,,,0.00,Wunderground v.1.15,2013-03-28 11:16:00,
2013-03-28 07:22:00,37.7,28.8,30.11,West,281,7.0,7.0,70,0.00,,,0.00,Wunderground v.1.15,2013-03-28 11:22:00,
2013-03-28 07:28:00,37.8,28.5,30.11,WNW,282,8.0,12.0,69,0.00,,,0.00,Wunderground v.1.15,2013-03-28 11:28:00,
2013-03-28 07:34:00,37.8,28.9,30.11,West,279,7.0,8.0,70,0.00,,,0.00,Wunderground v.1.15,2013-03-28 11:34:00,
2013-03-28 07:40:00,37.9,28.6,30.11,West,280,7.0,9.0,69,0.00,,,0.00,Wunderground v.1.15,2013-03-28 11:40:00,
2013-03-28 07:46:00,37.8,28.9,30.11,WNW,292,6.0,12.0,70,0.00,,,0.00,Wunderground v.1.15,2013-03-28 11:46:00,
2013-03-28 07:51:00,37.7,28.8,30.11,West,281,7.0,12.0,70,0.00,,,0.00,Wunderground v.1.15,2013-03-28 11:51:00,
2013-03-28 07:56:00,38.0,29.1,30.11,WNW,289,8.0,12.0,70,0.00,,,0.00,Wunderground v.1.15,2013-03-28 11:56:00,
2013-03-28 08:02:00,38.2,28.9,30.11,West,279,9.0,12.0,69,0.00,,,0.00,Wunderground v.1.15,2013-03-28 12:02:00,
2013-03-28 08:07:00,38.2,28.9,30.11,West,271,9.0,12.0,69,0.00,,,0.00,Wunderground v.1.15,2013-03-28 12:07:00,
2013-03-28 08:14:00,38.2,28.9,30.11,West,263,9.0,10.0,69,0.00,,,0.00,Wunderground v.1.15,2013-03-28 12:14:00,
2013-03-28 08:19:00,38.2,28.9,30.12,West,269,9.0,13.0,69,0.00,,,0.00,Wunderground v.1.15,2013-03-28 12:19:00,
2013-03-28 08:25:00,38.2,28.9,30.11,WNW,286,9.0,9.0,69,0.00,,,0.00,Wunderground v.1.15,2013-03-28 12:25:00,
2013-03-28 08:31:00,38.3,29.0,30.11,West,269,8.0,10.0,69,0.00,,,0.00,Wunderground v.1.15,2013-03-28 12:31:00,
2013-03-28 08:37:00,38.2,28.9,30.11,West,281,8.0,11.0,69,0.00,,,0.00,Wunderground v.1.15,2013-03-28 12:37:00,
2013-03-28 08:42:00,38.4,29.5,30.11,WNW,285,8.0,8.0,70,0.00,,,0.00,Wunderground v.1.15,2013-03-28 12:42:00,
2013-03-28 08:49:00,38.9,29.6,30.11,West,261,7.0,10.0,69,0.00,,,0.00,Wunderground v.1.15,2013-03-28 12:49:00,
2013-03-28 08:54:00,39.3,30.0,30.11,West,277,7.0,10.0,69,0.00,,,0.00,Wunderground v.1.15,2013-03-28 12:54:00,
2013-03-28 08:59:00,39.0,29.7,30.12,West,272,8.0,11.0,69,0.00,,,0.00,Wunderground v.1.15,2013-03-28 12:59:00,
2013-03-28 09:04:00,39.2,29.5,30.11,WNW,291,9.0,12.0,68,0.00,,,0.00,Wunderground v.1.15,2013-03-28 13:04:00,
2013-03-28 09:10:00,39.4,29.3,30.12,West,277,10.0,10.0,67,0.00,,,0.00,Wunderground v.1.15,2013-03-28 13:10:00,
2013-03-28 09:16:00,39.8,30.1,30.11,WNW,282,11.0,14.0,68,0.00,,,0.00,Wunderground v.1.15,2013-03-28 13:16:00,
2013-03-28 09:21:00,39.5,29.8,30.11,WNW,290,10.0,10.0,68,0.00,,,0.00,Wunderground v.1.15,2013-03-28 13:21:00,
2013-03-28 09:26:00,39.5,29.8,30.12,NW,312,9.0,14.0,68,0.00,,,0.00,Wunderground v.1.15,2013-03-28 13:26:00,
2013-03-28 09:31:00,39.6,29.5,30.12,West,277,8.0,8.0,67,0.00,,,0.00,Wunderground v.1.15,2013-03-28 13:31:00,
2013-03-28 09:37:00,39.2,29.5,30.13,West,274,7.0,12.0,68,0.00,,,0.00,Wunderground v.1.15,2013-03-28 13:37:00,
2013-03-28 09:42:00,39.0,29.3,30.13,NW,311,8.0,9.0,68,0.00,,,0.00,Wunderground v.1.15,2013-03-28 13:42:00,
2013-03-28 09:47:00,39.2,29.5,30.13,WNW,296,8.0,9.0,68,0.00,,,0.00,Wunderground v.1.15,2013-03-28 13:47:00,
2013-03-28 09:52:00,39.5,29.8,30.14,WNW,303,6.0,6.0,68,0.00,,,0.00,Wunderground v.1.15,2013-03-28 13:52:00,
2013-03-28 09:57:00,39.9,29.8,30.14,WNW,286,4.0,9.0,67,0.00,,,0.00,Wunderground v.1.15,2013-03-28 13:57:00,
2013-03-28 10:04:00,40.2,30.1,30.14,West,280,6.0,6.0,67,0.00,,,0.00,Wunderground v.1.15,2013-03-28 14:04:00,
2013-03-28 10:10:00,40.3,30.2,30.14,WNW,290,5.0,5.0,67,0.00,,,0.00,Wunderground v.1.15,2013-03-28 14:10:00,
2013-03-28 10:16:00,40.6,29.7,30.14,NW,308,6.0,6.0,65,0.00,,,0.00,Wunderground v.1.15,2013-03-28 14:16:00,
2013-03-28 10:21:00,40.7,29.8,30.14,West,273,5.0,8.0,65,0.00,,,0.00,Wunderground v.1.15,2013-03-28 14:21:00,
2013-03-28 10:27:00,40.9,29.7,30.14,NW,308,5.0,8.0,64,0.00,,,0.00,Wunderground v.1.15,2013-03-28 14:27:00,
2013-03-28 10:32:00,40.9,29.7,30.14,NW,307,6.0,6.0,64,0.00,,,0.00,Wunderground v.1.15,2013-03-28 14:32:00,
2013-03-28 10:37:00,40.9,29.7,30.14,West,270,6.0,9.0,64,0.00,,,0.00,Wunderground v.1.15,2013-03-28 14:37:00,
2013-03-28 10:44:00,42.6,31.3,30.14,WNW,303,7.0,10.0,64,0.00,,,0.00,Wunderground v.1.15,2013-03-28 14:44:00,
2013-03-28 10:49:00,42.4,31.1,30.14,WNW,290,7.0,12.0,64,0.00,,,0.00,Wunderground v.1.15,2013-03-28 14:49:00,
2013-03-28 10:55:00,42.8,31.5,30.14,WNW,294,9.0,11.0,64,0.00,,,0.00,Wunderground v.1.15,2013-03-28 14:55:00,
2013-03-28 11:01:00,43.8,32.0,30.15,West,268,8.0,8.0,63,0.00,,,0.00,Wunderground v.1.15,2013-03-28 15:01:00,
2013-03-28 11:06:00,43.4,30.8,30.14,NNW,344,5.0,9.0,61,0.00,,,0.00,Wunderground v.1.15,2013-03-28 15:06:00,
2013-03-28 11:12:00,44.0,31.8,30.14,WNW,286,5.0,5.0,62,0.00,,,0.00,Wunderground v.1.15,2013-03-28 15:12:00,
2013-03-28 11:19:00,43.9,31.3,30.15,WNW,294,5.0,9.0,61,0.00,,,0.00,Wunderground v.1.15,2013-03-28 15:19:00,
2013-03-28 11:25:00,44.1,31.1,30.15,NW,304,6.0,12.0,60,0.00,,,0.00,Wunderground v.1.15,2013-03-28 15:25:00,
2013-03-28 11:31:00,44.2,31.2,30.15,WNW,294,6.0,6.0,60,0.00,,,0.00,Wunderground v.1.15,2013-03-28 15:31:00,
2013-03-28 11:37:00,44.7,30.8,30.15,WNW,292,6.0,10.0,58,0.00,,,0.00,Wunderground v.1.15,2013-03-28 15:37:00,
2013-03-28 11:43:00,44.4,30.1,30.15,WNW,296,6.0,8.0,57,0.00,,,0.00,Wunderground v.1.15,2013-03-28 15:43:00,
2013-03-28 11:49:00,44.0,30.6,30.15,West,275,6.0,11.0,59,0.00,,,0.00,Wunderground v.1.15,2013-03-28 15:49:00,
2013-03-28 11:55:00,44.3,31.3,30.15,NW,309,7.0,11.0,60,0.00,,,0.00,Wunderground v.1.15,2013-03-28 15:55:00,
2013-03-28 12:02:00,44.7,30.8,30.15,WNW,293,8.0,11.0,58,0.00,,,0.00,Wunderground v.1.15,2013-03-28 16:02:00,
2013-03-28 12:07:00,44.5,29.8,30.15,NW,312,7.0,13.0,56,0.00,,,0.00,Wunderground v.1.15,2013-03-28 16:07:00,
2013-03-28 12:12:00,44.5,29.8,30.15,WNW,286,7.0,7.0,56,0.00,,,0.00,Wunderground v.1.15,2013-03-28 16:12:00,
2013-03-28 12:17:00,44.9,30.6,30.14,WNW,302,6.0,7.0,57,0.00,,,0.00,Wunderground v.1.15,2013-03-28 16:17:00,
2013-03-28 12:22:00,46.1,31.3,30.14,WNW,284,5.0,7.0,56,0.00,,,0.00,Wunderground v.1.15,2013-03-28 16:22:00,
2013-03-28 12:28:00,45.4,30.6,30.14,NW,311,7.0,9.0,56,0.00,,,0.00,Wunderground v.1.15,2013-03-28 16:28:00,
2013-03-28 12:34:00,45.0,30.7,30.14,WNW,293,7.0,7.0,57,0.00,,,0.00,Wunderground v.1.15,2013-03-28 16:34:00,
2013-03-28 12:40:00,45.3,31.4,30.14,WNW,288,7.0,9.0,58,0.00,,,0.00,Wunderground v.1.15,2013-03-28 16:40:00,
2013-03-28 12:46:00,45.2,30.9,30.14,West,263,10.0,14.0,57,0.00,,,0.00,Wunderground v.1.15,2013-03-28 16:46:00,
2013-03-28 12:51:00,45.2,30.4,30.14,WNW,290,9.0,9.0,56,0.00,,,0.00,Wunderground v.1.15,2013-03-28 16:51:00,
2013-03-28 12:56:00,46.2,31.4,30.14,West,271,7.0,10.0,56,0.00,,,0.00,Wunderground v.1.15,2013-03-28 16:56:00,
2013-03-28 13:01:00,45.4,30.6,30.14,WNW,286,10.0,15.0,56,0.00,,,0.00,Wunderground v.1.15,2013-03-28 17:01:00,
2013-03-28 13:07:00,45.3,30.5,30.14,WNW,287,10.0,15.0,56,0.00,,,0.00,Wunderground v.1.15,2013-03-28 17:07:00,
2013-03-28 13:12:00,45.5,30.7,30.14,WNW,291,9.0,13.0,56,0.00,,,0.00,Wunderground v.1.15,2013-03-28 17:12:00,
2013-03-28 13:17:00,45.0,31.1,30.15,NW,309,9.0,13.0,58,0.00,,,0.00,Wunderground v.1.15,2013-03-28 17:17:00,
2013-03-28 13:22:00,44.3,30.0,30.15,WNW,296,9.0,9.0,57,0.00,,,0.00,Wunderground v.1.15,2013-03-28 17:22:00,
2013-03-28 13:27:00,44.1,30.3,30.15,WNW,292,7.0,12.0,58,0.00,,,0.00,Wunderground v.1.15,2013-03-28 17:27:00,
2013-03-28 13:34:00,44.2,30.8,30.15,WNW,298,9.0,12.0,59,0.00,,,0.00,Wunderground v.1.15,2013-03-28 17:34:00,
2013-03-28 13:40:00,44.2,30.3,30.15,NW,316,6.0,6.0,58,0.00,,,0.00,Wunderground v.1.15,2013-03-28 17:40:00,
2013-03-28 13:46:00,43.8,30.0,30.15,NW,320,6.0,7.0,58,0.00,,,0.00,Wunderground v.1.15,2013-03-28 17:46:00,
2013-03-28 13:51:00,43.6,30.2,30.15,NW,305,6.0,6.0,59,0.00,,,0.00,Wunderground v.1.15,2013-03-28 17:51:00,
2013-03-28 13:56:00,43.8,30.0,30.15,WNW,295,6.0,9.0,58,0.00,,,0.00,Wunderground v.1.15,2013-03-28 17:56:00,
2013-03-28 14:01:00,43.4,30.0,30.15,WNW,302,6.0,7.0,59,0.00,,,0.00,Wunderground v.1.15,2013-03-28 18:01:00,
2013-03-28 14:07:00,43.9,30.9,30.15,WNW,298,6.0,13.0,60,0.00,,,0.00,Wunderground v.1.15,2013-03-28 18:07:00,
2013-03-28 14:12:00,44.1,30.3,30.15,WNW,294,5.0,7.0,58,0.00,,,0.00,Wunderground v.1.15,2013-03-28 18:12:00,
2013-03-28 14:17:00,44.6,31.1,30.15,NW,308,5.0,10.0,59,0.00,,,0.00,Wunderground v.1.15,2013-03-28 18:17:00,
2013-03-28 14:22:00,44.9,31.0,30.14,WNW,302,5.0,5.0,58,0.00,,,0.00,Wunderground v.1.15,2013-03-28 18:22:00,
2013-03-28 14:27:00,44.7,30.0,30.15,NW,323,5.0,7.0,56,0.00,,,0.00,Wunderground v.1.15,2013-03-28 18:27:00,
2013-03-28 14:32:00,44.4,30.1,30.14,NW,304,5.0,8.0,57,0.00,,,0.00,Wunderground v.1.15,2013-03-28 18:32:00,
2013-03-28 14:39:00,44.3,30.9,30.15,WNW,299,7.0,10.0,59,0.00,,,0.00,Wunderground v.1.15,2013-03-28 18:39:00,
2013-03-28 14:44:00,43.8,30.0,30.15,NNW,327,7.0,7.0,58,0.00,,,0.00,Wunderground v.1.15,2013-03-28 18:44:00,
2013-03-28 14:49:00,43.2,30.6,30.15,West,277,6.0,9.0,61,0.00,,,0.00,Wunderground v.1.15,2013-03-28 18:49:00,
2013-03-28 14:55:00,42.8,30.3,30.15,WNW,301,7.0,11.0,61,0.00,,,0.00,Wunderground v.1.15,2013-03-28 18:55:00,
2013-03-28 15:01:00,42.6,30.5,30.15,West,281,7.0,7.0,62,0.00,,,0.00,Wunderground v.1.15,2013-03-28 19:01:00,
2013-03-28 15:06:00,42.6,30.9,30.15,West,278,6.0,10.0,63,0.00,,,0.00,Wunderground v.1.15,2013-03-28 19:06:00,
2013-03-28 15:11:00,43.2,31.4,30.15,WNW,292,5.0,5.0,63,0.00,,,0.00,Wunderground v.1.15,2013-03-28 19:11:00,
2013-03-28 15:17:00,43.8,30.4,30.15,NW,304,4.0,6.0,59,0.00,,,0.00,Wunderground v.1.15,2013-03-28 19:17:00,
2013-03-28 15:22:00,44.1,31.5,30.15,WNW,285,5.0,6.0,61,0.00,,,0.00,Wunderground v.1.15,2013-03-28 19:22:00,
2013-03-28 15:27:00,44.1,30.7,30.15,WNW,291,5.0,10.0,59,0.00,,,0.00,Wunderground v.1.15,2013-03-28 19:27:00,
2013-03-28 15:32:00,43.6,30.2,30.15,NNW,342,6.0,6.0,59,0.00,,,0.00,Wunderground v.1.15,2013-03-28 19:32:00,
2013-03-28 15:39:00,43.3,30.3,30.15,WNW,290,6.0,6.0,60,0.00,,,0.00,Wunderground v.1.15,2013-03-28 19:39:00,
2013-03-28 15:44:00,43.3,30.7,30.15,WNW,288,7.0,14.0,61,0.00,,,0.00,Wunderground v.1.15,2013-03-28 19:44:00,
2013-03-28 15:49:00,44.1,31.1,30.15,West,265,7.0,14.0,60,0.00,,,0.00,Wunderground v.1.15,2013-03-28 19:49:00,
2013-03-28 15:55:00,44.6,32.0,30.15,West,281,8.0,15.0,61,0.00,,,0.00,Wunderground v.1.15,2013-03-28 19:55:00,
2013-03-28 16:01:00,44.5,30.6,30.15,WNW,302,8.0,8.0,58,0.00,,,0.00,Wunderground v.1.15,2013-03-28 20:01:00,
2013-03-28 16:06:00,44.0,31.0,30.15,West,270,7.0,8.0,60,0.00,,,0.00,Wunderground v.1.15,2013-03-28 20:06:00,
2013-03-28 16:12:00,43.7,31.1,30.15,WNW,300,6.0,7.0,61,0.00,,,0.00,Wunderground v.1.15,2013-03-28 20:12:00,
2013-03-28 16:19:00,43.7,31.1,30.15,WNW,296,6.0,7.0,61,0.00,,,0.00,Wunderground v.1.15,2013-03-28 20:19:00,
2013-03-28 16:25:00,43.5,31.3,30.15,West,279,7.0,12.0,62,0.00,,,0.00,Wunderground v.1.15,2013-03-28 20:25:00,
2013-03-28 16:31:00,43.3,30.7,30.15,WNW,284,7.0,7.0,61,0.00,,,0.00,Wunderground v.1.15,2013-03-28 20:31:00,
2013-03-28 16:36:00,43.4,30.4,30.15,NW,319,5.0,9.0,60,0.00,,,0.00,Wunderground v.1.15,2013-03-28 20:36:00,
2013-03-28 16:42:00,43.4,30.8,30.16,NW,304,4.0,4.0,61,0.00,,,0.00,Wunderground v.1.15,2013-03-28 20:42:00,
2013-03-28 16:49:00,43.0,30.9,30.16,West,278,5.0,7.0,62,0.00,,,0.00,Wunderground v.1.15,2013-03-28 20:49:00,
2013-03-28 16:54:00,42.8,31.1,30.16,WNW,289,8.0,10.0,63,0.00,,,0.00,Wunderground v.1.15,2013-03-28 20:54:00,
2013-03-28 16:59:00,42.9,31.9,30.16,NW,306,7.0,10.0,65,0.00,,,0.00,Wunderground v.1.15,2013-03-28 20:59:00,
2013-03-28 17:05:00,42.9,31.6,30.16,WNW,286,8.0,14.0,64,0.00,,,0.00,Wunderground v.1.15,2013-03-28 21:05:00,
2013-03-28 17:10:00,43.2,31.4,30.16,WNW,299,7.0,7.0,63,0.00,,,0.00,Wunderground v.1.15,2013-03-28 21:10:00,
2013-03-28 17:16:00,43.1,31.0,30.16,WNW,290,6.0,7.0,62,0.00,,,0.00,Wunderground v.1.15,2013-03-28 21:16:00,
2013-03-28 17:21:00,42.9,30.8,30.16,WNW,300,5.0,5.0,62,0.00,,,0.00,Wunderground v.1.15,2013-03-28 21:21:00,
2013-03-28 17:26:00,42.7,30.6,30.17,NW,304,5.0,5.0,62,0.00,,,0.00,Wunderground v.1.15,2013-03-28 21:26:00,
2013-03-28 17:32:00,42.7,31.0,30.17,WNW,286,5.0,10.0,63,0.00,,,0.00,Wunderground v.1.15,2013-03-28 21:32:00,
2013-03-28 17:39:00,42.4,30.7,30.17,NW,315,5.0,11.0,63,0.00,,,0.00,Wunderground v.1.15,2013-03-28 21:39:00,
2013-03-28 17:44:00,42.3,31.4,30.17,NW,321,5.0,6.0,65,0.00,,,0.00,Wunderground v.1.15,2013-03-28 21:44:00,
2013-03-28 17:49:00,42.3,31.4,30.17,WNW,297,5.0,6.0,65,0.00,,,0.00,Wunderground v.1.15,2013-03-28 21:49:00,
2013-03-28 17:55:00,42.4,31.5,30.17,WNW,288,4.0,5.0,65,0.00,,,0.00,Wunderground v.1.15,2013-03-28 21:55:00,
2013-03-28 18:01:00,42.9,32.3,30.17,WNW,282,4.0,5.0,66,0.00,,,0.00,Wunderground v.1.15,2013-03-28 22:01:00,
2013-03-28 18:06:00,43.0,32.0,30.17,WNW,284,5.0,8.0,65,0.00,,,0.00,Wunderground v.1.15,2013-03-28 22:06:00,
2013-03-28 18:11:00,43.0,31.6,30.17,WNW,299,5.0,5.0,64,0.00,,,0.00,Wunderground v.1.15,2013-03-28 22:11:00,
2013-03-28 18:17:00,43.8,32.0,30.17,WNW,302,4.0,5.0,63,0.00,,,0.00,Wunderground v.1.15,2013-03-28 22:17:00,
2013-03-28 18:22:00,44.6,32.4,30.17,WNW,300,3.0,4.0,62,0.00,,,0.00,Wunderground v.1.15,2013-03-28 22:22:00,
2013-03-28 18:29:00,43.8,31.2,30.17,NW,307,3.0,4.0,61,0.00,,,0.00,Wunderground v.1.15,2013-03-28 22:29:00,
2013-03-28 18:34:00,44.1,31.5,30.17,NW,304,2.0,6.0,61,0.00,,,0.00,Wunderground v.1.15,2013-03-28 22:34:00,
2013-03-28 18:41:00,44.2,31.2,30.17,NW,304,3.0,3.0,60,0.00,,,0.00,Wunderground v.1.15,2013-03-28 22:41:00,
2013-03-28 18:46:00,43.7,30.3,30.17,WNW,291,3.0,5.0,59,0.00,,,0.00,Wunderground v.1.15,2013-03-28 22:46:00,
2013-03-28 18:52:00,43.1,30.1,30.18,NW,306,4.0,4.0,60,0.00,,,0.00,Wunderground v.1.15,2013-03-28 22:52:00,
2013-03-28 18:58:00,42.6,30.1,30.18,WNW,298,4.0,6.0,61,0.00,,,0.00,Wunderground v.1.15,2013-03-28 22:58:00,
2013-03-28 19:04:00,42.2,30.5,30.18,WNW,298,3.0,3.0,63,0.00,,,0.00,Wunderground v.1.15,2013-03-28 23:04:00,
2013-03-28 19:09:00,42.3,30.6,30.18,NW,313,2.0,7.0,63,0.00,,,0.00,Wunderground v.1.15,2013-03-28 23:09:00,
2013-03-28 19:14:00,42.7,30.2,30.18,WNW,300,4.0,7.0,61,0.00,,,0.00,Wunderground v.1.15,2013-03-28 23:14:00,
2013-03-28 19:19:00,42.7,30.6,30.19,NW,315,6.0,11.0,62,0.00,,,0.00,Wunderground v.1.15,2013-03-28 23:19:00,
2013-03-28 19:25:00,42.6,30.5,30.19,NW,313,5.0,6.0,62,0.00,,,0.00,Wunderground v.1.15,2013-03-28 23:25:00,
2013-03-28 19:31:00,42.2,30.5,30.19,WNW,286,3.0,6.0,63,0.00,,,0.00,Wunderground v.1.15,2013-03-28 23:31:00,
2013-03-28 19:36:00,41.9,30.2,30.19,WNW,286,2.0,3.0,63,0.00,,,0.00,Wunderground v.1.15,2013-03-28 23:36:00,
2013-03-28 19:41:00,41.7,30.4,30.20,WNW,287,2.0,2.0,64,0.00,,,0.00,Wunderground v.1.15,2013-03-28 23:41:00,
2013-03-28 19:47:00,41.4,30.1,30.20,WNW,287,1.0,2.0,64,0.00,,,0.00,Wunderground v.1.15,2013-03-28 23:47:00,
2013-03-28 19:52:00,41.2,29.9,30.20,WNW,287,1.0,1.0,64,0.00,,,0.00,Wunderground v.1.15,2013-03-28 23:52:00,
2013-03-28 19:59:00,40.3,29.8,30.20,WNW,287,0.0,1.0,66,0.00,,,0.00,Wunderground v.1.15,2013-03-28 23:59:00,
2013-03-28 20:05:00,39.6,29.9,30.20,WNW,287,0.0,2.0,68,0.00,,,0.00,Wunderground v.1.15,2013-03-29 00:05:00,
2013-03-28 20:11:00,39.1,30.1,30.20,WNW,287,0.0,0.0,70,0.00,,,0.00,Wunderground v.1.15,2013-03-29 00:11:00,
2013-03-28 20:17:00,39.1,30.1,30.20,WNW,287,0.0,0.0,70,0.00,,,0.00,Wunderground v.1.15,2013-03-29 00:17:00,
2013-03-28 20:22:00,39.1,30.5,30.21,WNW,287,0.0,0.0,71,0.00,,,0.00,Wunderground v.1.15,2013-03-29 00:22:00,
2013-03-28 20:27:00,39.1,30.8,30.21,WNW,287,0.0,0.0,72,0.00,,,0.00,Wunderground v.1.15,2013-03-29 00:27:00,
2013-03-28 20:34:00,38.9,30.6,30.21,WNW,287,0.0,0.0,72,0.00,,,0.00,Wunderground v.1.15,2013-03-29 00:34:00,
2013-03-28 20:40:00,38.8,30.9,30.21,WNW,287,0.0,0.0,73,0.00,,,0.00,Wunderground v.1.15,2013-03-29 00:40:00,
2013-03-28 20:46:00,38.4,30.5,30.21,WNW,287,0.0,0.0,73,0.00,,,0.00,Wunderground v.1.15,2013-03-29 00:46:00,
2013-03-28 20:52:00,37.9,30.4,30.22,WNW,287,0.0,0.0,74,0.00,,,0.00,Wunderground v.1.15,2013-03-29 00:52:00,
2013-03-28 20:57:00,37.0,29.5,30.22,WNW,287,0.0,0.0,74,0.00,,,0.00,Wunderground v.1.15,2013-03-29 00:57:00,
2013-03-28 21:05:00,35.5,28.7,30.22,WNW,287,0.0,0.0,76,0.00,,,0.00,Wunderground v.1.15,2013-03-29 01:05:00,
2013-03-28 21:10:00,35.0,28.5,30.22,WNW,287,0.0,0.0,77,0.00,,,0.00,Wunderground v.1.15,2013-03-29 01:10:00,
2013-03-28 21:16:00,34.5,28.3,30.22,WNW,287,0.0,0.0,78,0.00,,,0.00,Wunderground v.1.15,2013-03-29 01:16:00,
2013-03-28 21:21:00,34.0,28.5,30.22,WNW,287,0.0,0.0,80,0.00,,,0.00,Wunderground v.1.15,2013-03-29 01:21:00,
2013-03-28 21:27:00,33.8,28.3,30.22,WNW,287,0.0,0.0,80,0.00,,,0.00,Wunderground v.1.15,2013-03-29 01:27:00,
2013-03-28 21:34:00,33.5,28.0,30.22,WNW,287,0.0,0.0,80,0.00,,,0.00,Wunderground v.1.15,2013-03-29 01:34:00,
2013-03-28 21:40:00,33.2,28.0,30.22,WNW,287,0.0,0.0,81,0.00,,,0.00,Wunderground v.1.15,2013-03-29 01:40:00,
2013-03-28 21:46:00,32.9,27.7,30.22,WNW,287,0.0,0.0,81,0.00,,,0.00,Wunderground v.1.15,2013-03-29 01:46:00,
2013-03-28 21:51:00,32.4,27.2,30.23,WNW,287,0.0,0.0,81,0.00,,,0.00,Wunderground v.1.15,2013-03-29 01:51:00,
2013-03-28 21:56:00,32.1,27.2,30.23,WNW,287,0.0,0.0,82,0.00,,,0.00,Wunderground v.1.15,2013-03-29 01:56:00,
2013-03-28 22:01:00,31.9,27.0,30.23,WNW,287,0.0,0.0,82,0.00,,,0.00,Wunderground v.1.15,2013-03-29 02:01:00,
2013-03-28 22:07:00,31.5,26.9,30.23,WNW,287,0.0,0.0,83,0.00,,,0.00,Wunderground v.1.15,2013-03-29 02:07:00,
2013-03-28 22:12:00,31.2,26.9,30.23,WNW,287,0.0,0.0,84,0.00,,,0.00,Wunderground v.1.15,2013-03-29 02:12:00,
2013-03-28 22:17:00,30.9,26.6,30.23,WNW,287,0.0,0.0,84,0.00,,,0.00,Wunderground v.1.15,2013-03-29 02:17:00,
2013-03-28 22:22:00,30.7,26.7,30.23,WNW,287,0.0,0.0,85,0.00,,,0.00,Wunderground v.1.15,2013-03-29 02:22:00,
2013-03-28 22:27:00,30.6,26.6,30.23,WNW,287,0.0,0.0,85,0.00,,,0.00,Wunderground v.1.15,2013-03-29 02:27:00,
2013-03-28 22:34:00,30.7,27.0,30.23,WNW,287,0.0,0.0,86,0.00,,,0.00,Wunderground v.1.15,2013-03-29 02:34:00,
2013-03-28 22:40:00,31.0,27.9,30.23,WNW,287,0.0,0.0,88,0.00,,,0.00,Wunderground v.1.15,2013-03-29 02:40:00,
2013-03-28 22:46:00,31.2,27.8,30.23,WNW,287,0.0,0.0,87,0.00,,,0.00,Wunderground v.1.15,2013-03-29 02:46:00,
2013-03-28 22:51:00,31.2,27.8,30.23,WNW,287,0.0,0.0,87,0.00,,,0.00,Wunderground v.1.15,2013-03-29 02:51:00,
2013-03-28 22:57:00,31.2,27.8,30.23,WNW,287,0.0,0.0,87,0.00,,,0.00,Wunderground v.1.15,2013-03-29 02:57:00,
2013-03-28 23:02:00,31.1,27.7,30.23,WNW,287,0.0,0.0,87,0.00,,,0.00,Wunderground v.1.15,2013-03-29 03:02:00,
2013-03-28 23:07:00,31.0,27.6,30.23,WNW,287,0.0,0.0,87,0.00,,,0.00,Wunderground v.1.15,2013-03-29 03:07:00,
2013-03-28 23:13:00,30.9,27.5,30.23,WNW,287,0.0,0.0,87,0.00,,,0.00,Wunderground v.1.15,2013-03-29 03:13:00,
2013-03-28 23:19:00,30.7,27.3,30.23,WNW,287,0.0,0.0,87,0.00,,,0.00,Wunderground v.1.15,2013-03-29 03:19:00,
2013-03-28 23:24:00,30.7,27.3,30.24,WNW,287,0.0,0.0,87,0.00,,,0.00,Wunderground v.1.15,2013-03-29 03:24:00,
2013-03-28 23:29:00,30.6,27.2,30.23,WNW,287,0.0,0.0,87,0.00,,,0.00,Wunderground v.1.15,2013-03-29 03:29:00,
2013-03-28 23:35:00,30.7,27.6,30.23,WNW,287,0.0,0.0,88,0.00,,,0.00,Wunderground v.1.15,2013-03-29 03:35:00,
2013-03-28 23:41:00,31.1,28.2,30.23,WNW,287,0.0,0.0,89,0.00,,,0.00,Wunderground v.1.15,2013-03-29 03:41:00,
2013-03-28 23:46:00,31.3,28.4,30.23,WNW,287,0.0,0.0,89,0.00,,,0.00,Wunderground v.1.15,2013-03-29 03:46:00,
2013-03-28 23:52:00,31.5,28.6,30.23,WNW,287,0.0,0.0,89,0.00,,,0.00,Wunderground v.1.15,2013-03-29 03:52:00,
2013-03-28 23:57:00,31.7,28.8,30.23,WNW,287,0.0,0.0,89,0.00,,,0.00,Wunderground v.1.15,2013-03-29 03:57:00,